createdAt,value
2022-11-12T07:28:00.226Z,6.30
2022-11-12T07:31:43.864Z,5.20
2022-11-12T07:35:06.575Z,5.97
2022-11-12T07:38:30.850Z,6.40
2022-11-12T07:41:55.314Z,8.23
2022-11-12T07:45:18.350Z,7.33
2022-11-12T07:48:40.583Z,7.15
2022-11-12T07:52:03.080Z,6.53
2022-11-12T07:55:25.113Z,7.97
2022-11-12T07:58:47.565Z,7.60
2022-11-12T08:02:10.433Z,7.83
2022-11-12T08:05:35.453Z,8.30
2022-11-12T08:08:57.653Z,8.80
2022-11-12T08:12:20.133Z,8.98
2022-11-12T08:15:42.141Z,9.80
2022-11-12T08:19:04.851Z,7.40
2022-11-12T08:22:29.163Z,8.60
2022-11-12T08:25:51.260Z,7.47
2022-11-12T08:29:13.367Z,6.30
2022-11-12T08:32:38.764Z,5.27
2022-11-12T08:36:04.651Z,5.53
2022-11-12T08:39:26.861Z,8.55
2022-11-12T08:42:48.745Z,9.63
2022-11-12T08:46:11.239Z,6.45
2022-11-12T08:49:32.821Z,5.73
2022-11-12T08:52:54.434Z,4.37
2022-11-12T08:56:16.419Z,5.90
2022-11-12T08:59:38.779Z,7.60
2022-11-12T09:03:01.913Z,5.90
2022-11-12T09:06:24.636Z,7.80
2022-11-12T09:09:47.307Z,8.93
2022-11-12T09:13:10.011Z,9.13
2022-11-12T09:16:32.278Z,9.48
2022-11-12T09:19:54.739Z,9.57
2022-11-12T09:23:18.222Z,7.57
2022-11-12T09:26:40.907Z,7.20
2022-11-12T09:30:02.125Z,6.43
2022-11-12T09:33:30.017Z,6.22
2022-11-12T09:36:52.391Z,6.15
2022-11-12T09:40:19.593Z,5.47
2022-11-12T09:43:48.861Z,5.83
2022-11-12T09:47:18.705Z,5.25
2022-11-12T09:50:49.175Z,5.22
2022-11-12T09:54:25.186Z,4.50
2022-11-12T09:57:47.249Z,4.70
2022-11-12T10:01:18.813Z,3.80
2022-11-12T10:04:44.231Z,4.10
2022-11-12T10:08:28.369Z,4.15
2022-11-12T10:12:34.310Z,4.75
2022-11-12T10:16:31.952Z,6.00
2022-11-12T10:20:02.081Z,5.10
2022-11-12T10:23:39.800Z,4.22
2022-11-12T10:27:03.267Z,3.72
2022-11-12T10:30:26.629Z,4.50
2022-11-12T10:33:48.902Z,3.47
2022-11-12T10:37:20.421Z,3.80
2022-11-12T10:40:43.565Z,4.68
2022-11-12T10:44:08.102Z,4.75
2022-11-12T10:47:43.316Z,4.40
2022-11-12T10:51:22.981Z,5.38
2022-11-12T10:54:45.273Z,3.47
2022-11-12T10:58:11.976Z,21.48
2022-11-12T11:01:35.921Z,64.57
2022-11-12T11:04:58.366Z,55.03
2022-11-12T11:08:45.881Z,52.40
2022-11-12T11:12:25.022Z,55.83
2022-11-12T11:15:58.488Z,58.28
2022-11-12T11:19:21.814Z,99.38
2022-11-12T11:22:50.920Z,61.08
2022-11-12T11:26:36.722Z,47.45
2022-11-12T11:30:04.065Z,46.90
2022-11-12T11:33:46.805Z,47.42
2022-11-12T11:37:27.412Z,50.60
2022-11-12T11:40:54.722Z,50.50
2022-11-12T11:44:38.563Z,59.20
2022-11-12T11:48:19.429Z,52.90
2022-11-12T11:51:41.638Z,56.30
2022-11-12T11:55:09.960Z,42.65
2022-11-12T11:59:14.845Z,38.63
2022-11-12T12:02:52.431Z,38.20
2022-11-12T12:06:13.684Z,38.27
2022-11-12T12:09:56.829Z,34.05
2022-11-12T12:13:51.733Z,36.65
2022-11-12T12:17:35.063Z,38.60
2022-11-12T12:21:05.214Z,39.05
2022-11-12T12:24:39.013Z,34.63
2022-11-12T12:28:37.895Z,37.35
2022-11-12T12:32:13.414Z,39.95
2022-11-12T12:35:41.590Z,41.65
2022-11-12T12:39:26.117Z,45.92
2022-11-12T12:42:56.880Z,44.13
2022-11-12T12:46:25.180Z,46.78
2022-11-12T12:49:49.685Z,34.58
2022-11-12T12:53:28.897Z,16.55
2022-11-12T12:56:51.183Z,10.50
2022-11-12T13:00:40.195Z,10.63
2022-11-12T13:04:09.851Z,8.63
2022-11-12T13:07:44.857Z,9.57
2022-11-12T13:11:07.040Z,14.48
2022-11-12T13:14:38.630Z,14.35
2022-11-12T13:18:00.945Z,16.67
2022-11-12T13:21:22.705Z,19.30
2022-11-12T13:25:25.316Z,17.63
2022-11-12T13:29:24.597Z,16.02
2022-11-12T13:32:50.322Z,11.07
2022-11-12T13:36:30.328Z,10.27
2022-11-12T13:39:51.709Z,8.50
2022-11-12T13:43:16.755Z,7.95
2022-11-12T13:46:38.768Z,21.27
2022-11-12T13:50:02.433Z,28.50
2022-11-12T13:53:27.425Z,31.40
2022-11-12T13:56:49.981Z,37.45
2022-11-12T14:00:12.320Z,35.00
2022-11-12T14:03:50.985Z,34.08
2022-11-12T14:07:43.637Z,39.45
2022-11-12T14:11:12.811Z,41.97
2022-11-12T14:14:59.502Z,40.72
2022-11-12T14:18:46.063Z,44.97
2022-11-12T14:22:10.369Z,55.92
2022-11-12T14:25:32.355Z,59.63
2022-11-12T14:28:58.436Z,51.17
2022-11-12T14:32:20.841Z,51.28
2022-11-12T14:35:43.304Z,48.85
2022-11-12T14:39:04.827Z,50.83
2022-11-12T14:42:36.340Z,48.58
2022-11-12T14:46:02.292Z,36.10
2022-11-12T14:49:39.382Z,36.67
2022-11-12T14:53:09.472Z,25.15
2022-11-12T14:56:43.191Z,23.25
2022-11-12T15:00:37.956Z,21.88
2022-11-12T15:04:18.601Z,29.83
2022-11-12T15:07:59.239Z,23.58
2022-11-12T15:11:32.863Z,26.05
2022-11-12T15:15:04.805Z,22.92
2022-11-12T15:18:30.525Z,26.42
2022-11-12T15:21:53.571Z,33.60
2022-11-12T15:25:31.840Z,32.78
2022-11-12T15:29:02.103Z,33.40
2022-11-12T15:32:23.348Z,33.00
2022-11-12T15:35:45.734Z,40.42
2022-11-12T15:39:14.574Z,33.67
2022-11-12T15:42:43.177Z,41.33
2022-11-12T15:46:05.293Z,46.17
2022-11-12T15:49:27.545Z,45.20
2022-11-12T15:52:49.478Z,45.90
2022-11-12T15:56:22.389Z,44.77
2022-11-12T15:59:44.550Z,37.65
2022-11-12T16:03:13.806Z,32.30
2022-11-12T16:06:35.298Z,42.72
2022-11-12T16:09:57.726Z,72.40
2022-11-12T16:13:36.543Z,114.07
2022-11-12T16:16:59.200Z,55.38
2022-11-12T16:20:26.155Z,60.35
2022-11-12T16:23:47.971Z,48.22
2022-11-12T16:27:16.610Z,39.42
2022-11-12T16:30:39.099Z,34.90
2022-11-12T16:34:01.411Z,34.13
2022-11-12T16:37:24.099Z,33.85
2022-11-12T16:40:46.706Z,30.40
2022-11-12T16:44:08.962Z,33.47
2022-11-12T16:47:32.475Z,33.27
2022-11-12T16:50:53.550Z,31.48
2022-11-12T16:54:14.698Z,33.50
2022-11-12T16:57:36.263Z,32.88
2022-11-12T17:00:57.690Z,29.55
2022-11-12T17:04:20.059Z,28.20
2022-11-12T17:07:42.116Z,24.55
2022-11-12T17:11:08.064Z,27.33
2022-11-12T17:14:30.262Z,28.05
2022-11-12T17:17:54.836Z,32.60
2022-11-12T17:21:19.376Z,28.53
2022-11-12T17:24:41.231Z,27.00
2022-11-12T17:28:03.189Z,27.55
2022-11-12T17:31:24.976Z,27.75
2022-11-12T17:34:46.290Z,25.60
2022-11-12T17:38:08.016Z,28.63
2022-11-12T17:41:30.264Z,33.88
2022-11-12T17:44:52.340Z,36.00
2022-11-12T17:48:14.029Z,35.83
2022-11-12T17:51:36.243Z,35.30
2022-11-12T17:54:58.103Z,32.07
2022-11-12T17:58:19.672Z,30.60
2022-11-12T18:01:41.962Z,26.98
2022-11-12T18:05:03.621Z,30.50
2022-11-12T18:08:26.135Z,28.02
2022-11-12T18:11:57.148Z,27.93
2022-11-12T18:15:19.565Z,28.65
2022-11-12T18:18:44.543Z,26.50
2022-11-12T18:22:06.088Z,25.95
2022-11-12T18:25:27.655Z,26.55
2022-11-12T18:28:57.689Z,25.07
2022-11-12T18:32:19.745Z,23.13
2022-11-12T18:35:41.577Z,22.13
2022-11-12T18:39:05.432Z,24.55
2022-11-12T18:42:27.112Z,17.85
2022-11-12T18:45:55.840Z,18.33
2022-11-12T18:49:17.436Z,20.67
2022-11-12T18:52:39.156Z,23.42
2022-11-12T18:56:05.050Z,22.05
2022-11-12T18:59:31.425Z,27.92
2022-11-12T19:02:54.044Z,34.07
2022-11-12T19:06:17.557Z,28.70
2022-11-12T19:09:39.895Z,19.20
2022-11-12T19:13:04.956Z,11.38
2022-11-12T19:16:27.238Z,12.38
2022-11-12T19:19:49.873Z,11.60
2022-11-12T19:23:12.117Z,12.25
2022-11-12T19:26:35.377Z,13.23
2022-11-12T19:30:02.647Z,14.23
2022-11-12T19:33:26.013Z,15.43
2022-11-12T19:36:48.495Z,13.77
2022-11-12T19:40:15.563Z,13.88
2022-11-12T19:43:38.424Z,14.43
2022-11-12T19:47:00.886Z,13.43
2022-11-12T19:50:24.851Z,14.35
2022-11-12T19:53:46.984Z,12.80
2022-11-12T19:57:09.379Z,10.55
2022-11-12T20:00:31.690Z,11.25
2022-11-12T20:03:54.547Z,14.05
2022-11-12T20:07:17.265Z,13.25
2022-11-12T20:10:38.649Z,13.47
2022-11-12T20:14:01.388Z,14.80
2022-11-12T20:17:22.949Z,13.80
2022-11-12T20:20:56.535Z,13.18
2022-11-12T20:24:19.659Z,12.57
2022-11-12T20:27:42.260Z,11.77
2022-11-12T20:31:08.791Z,13.07
2022-11-12T20:34:31.154Z,16.67
2022-11-12T20:37:54.018Z,20.20
2022-11-12T20:41:22.246Z,16.80
2022-11-12T20:44:44.552Z,15.43
2022-11-12T20:48:08.686Z,12.75
2022-11-12T20:51:30.905Z,12.30
2022-11-12T20:54:53.680Z,13.45
2022-11-12T20:58:15.671Z,14.18
2022-11-12T21:01:38.132Z,12.73
2022-11-12T21:05:00.293Z,14.77
2022-11-12T21:08:23.031Z,15.38
2022-11-12T21:11:45.342Z,13.82
2022-11-12T21:15:08.107Z,15.10
2022-11-12T21:18:30.668Z,15.43
2022-11-12T21:21:52.273Z,16.30
2022-11-12T21:25:14.458Z,18.85
2022-11-12T21:28:39.202Z,22.40
2022-11-12T21:32:01.065Z,24.17
2022-11-12T21:35:23.495Z,20.63
2022-11-12T21:38:45.341Z,19.92
2022-11-12T21:42:06.888Z,17.83
2022-11-12T21:45:29.195Z,19.67
2022-11-12T21:48:55.069Z,24.40
2022-11-12T21:52:16.293Z,30.23
2022-11-12T21:55:38.789Z,22.70
2022-11-12T21:59:01.856Z,21.45
2022-11-12T22:02:23.688Z,21.17
2022-11-12T22:05:45.974Z,22.02
2022-11-12T22:09:08.623Z,15.40
2022-11-12T22:12:30.649Z,15.48
2022-11-12T22:15:53.566Z,15.20
2022-11-12T22:19:16.708Z,18.55
2022-11-12T22:22:38.395Z,18.48
2022-11-12T22:26:01.177Z,18.27
2022-11-12T22:29:22.823Z,18.15
2022-11-12T22:32:44.449Z,18.00
2022-11-12T22:36:12.206Z,18.15
2022-11-12T22:39:34.213Z,18.02
2022-11-12T22:42:55.780Z,17.40
2022-11-12T22:46:21.186Z,16.58
2022-11-12T22:49:43.341Z,19.63
2022-11-12T22:53:05.007Z,17.98
2022-11-12T22:56:27.814Z,20.02
2022-11-12T22:59:50.121Z,21.47
2022-11-12T23:03:11.971Z,23.13
2022-11-12T23:06:34.637Z,27.40
2022-11-12T23:09:55.867Z,25.05
2022-11-12T23:13:18.450Z,23.10
2022-11-12T23:16:40.998Z,25.23
2022-11-12T23:20:03.927Z,25.17
2022-11-12T23:23:25.270Z,29.77
2022-11-12T23:26:46.856Z,35.63
2022-11-12T23:30:08.670Z,39.73
2022-11-12T23:33:31.167Z,37.55
2022-11-12T23:36:53.488Z,38.00
2022-11-12T23:40:16.685Z,37.90
2022-11-12T23:43:37.940Z,32.95
2022-11-12T23:46:59.754Z,34.43
2022-11-12T23:50:21.967Z,26.85
2022-11-12T23:53:43.359Z,13.68
2022-11-12T23:57:04.715Z,9.40
